Time,TemperatureF,DewpointF,PressureIn,WindDirection,WindDirectionDegrees,WindSpeedMPH,WindSpeedGustMPH,Humidity,HourlyPrecipIn,Conditions,Clouds,dailyrainin,SoftwareType,DateUTC
2013-04-12 00:00:00,45.0,37.0,-100.00,South,173,0.0,-999.0,75,0.00,,,0.00,,2013-04-12 05:00:00,
2013-04-12 00:32:00,45.0,37.0,-100.00,South,173,0.0,-999.0,75,0.00,,,0.00,,2013-04-12 05:32:00,
2013-04-12 00:42:00,45.0,37.0,-100.00,South,173,0.0,-999.0,75,0.00,,,0.00,,2013-04-12 05:42:00,
2013-04-12 00:52:00,45.0,37.0,-100.00,South,173,0.0,-999.0,75,0.00,,,0.00,,2013-04-12 05:52:00,
2013-04-12 01:00:00,45.0,41.0,-100.00,NNW,328,0.0,-999.0,88,0.00,,,0.00,,2013-04-12 06:00:00,
2013-04-12 01:32:00,45.0,41.0,-100.00,NNW,328,0.0,-999.0,88,0.00,,,0.00,,2013-04-12 06:32:00,
2013-04-12 01:42:00,45.0,41.0,-100.00,NNW,328,0.0,-999.0,88,0.00,,,0.00,,2013-04-12 06:42:00,
2013-04-12 01:52:00,45.0,41.0,-100.00,NNW,328,0.0,-999.0,88,0.00,,,0.00,,2013-04-12 06:52:00,
2013-04-12 02:00:00,41.0,38.0,-100.00,South,183,1.0,-999.0,91,0.00,,,0.00,,2013-04-12 07:00:00,
2013-04-12 02:32:00,41.0,38.0,-100.00,South,183,1.0,-999.0,91,0.00,,,0.00,,2013-04-12 07:32:00,
2013-04-12 02:42:00,41.0,38.0,-100.00,South,183,1.0,-999.0,91,0.00,,,0.00,,2013-04-12 07:42:00,
2013-04-12 02:52:00,41.0,38.0,-100.00,South,183,1.0,-999.0,91,0.00,,,0.00,,2013-04-12 07:52:00,
2013-04-12 03:00:00,40.0,38.0,-100.00,SSE,165,1.0,-999.0,94,0.00,,,0.00,,2013-04-12 08:00:00,
2013-04-12 03:32:00,40.0,38.0,-100.00,SSE,165,1.0,-999.0,94,0.00,,,0.00,,2013-04-12 08:32:00,
2013-04-12 03:43:00,40.0,38.0,-100.00,SSE,165,1.0,-999.0,94,0.00,,,0.00,,2013-04-12 08:43:00,
2013-04-12 03:52:00,40.0,38.0,-100.00,SSE,165,1.0,-999.0,94,0.00,,,0.00,,2013-04-12 08:52:00,
2013-04-12 04:00:00,44.0,42.0,-100.00,NNE,18,0.0,-999.0,93,0.00,,,0.00,,2013-04-12 09:00:00,
2013-04-12 04:33:00,44.0,42.0,-100.00,NNE,18,0.0,-999.0,93,0.00,,,0.00,,2013-04-12 09:33:00,
2013-04-12 04:44:00,44.0,42.0,-100.00,NNE,18,0.0,-999.0,93,0.00,,,0.00,,2013-04-12 09:44:00,
2013-04-12 04:53:00,44.0,42.0,-100.00,NNE,18,0.0,-999.0,93,0.00,,,0.00,,2013-04-12 09:53:00,
2013-04-12 05:00:00,41.0,40.0,-100.00,WSW,257,0.0,-999.0,97,0.00,,,0.00,,2013-04-12 10:00:00,
2013-04-12 05:34:00,41.0,40.0,-100.00,WSW,257,0.0,-999.0,97,0.00,,,0.00,,2013-04-12 10:34:00,
2013-04-12 05:42:00,41.0,40.0,-100.00,WSW,257,0.0,-999.0,97,0.00,,,0.00,,2013-04-12 10:42:00,
2013-04-12 05:53:00,41.0,40.0,-100.00,WSW,257,0.0,-999.0,97,0.00,,,0.00,,2013-04-12 10:53:00,
2013-04-12 07:00:00,44.0,42.0,-100.00,NW,318,1.0,-999.0,92,0.00,,,-99.99,,2013-04-12 12:00:00,
2013-04-12 07:33:00,44.0,42.0,-100.00,NW,318,1.0,-999.0,92,0.00,,,-99.99,,2013-04-12 12:33:00,
2013-04-12 07:42:00,44.0,42.0,-100.00,NW,318,1.0,-999.0,92,0.00,,,-99.99,,2013-04-12 12:42:00,
2013-04-12 07:53:00,44.0,42.0,-100.00,NW,318,1.0,-999.0,92,0.00,,,-99.99,,2013-04-12 12:53:00,
2013-04-12 08:00:00,45.0,42.0,-100.00,ENE,76,1.0,-999.0,90,0.00,,,0.00,,2013-04-12 13:00:00,
2013-04-12 08:32:00,45.0,42.0,-100.00,ENE,76,1.0,-999.0,90,0.00,,,0.00,,2013-04-12 13:32:00,
2013-04-12 08:43:00,45.0,42.0,-100.00,ENE,76,1.0,-999.0,90,0.00,,,0.00,,2013-04-12 13:43:00,
2013-04-12 08:53:00,45.0,42.0,-100.00,ENE,76,1.0,-999.0,90,0.00,,,0.00,,2013-04-12 13:53:00,
2013-04-12 09:00:00,49.0,43.0,-100.00,East,96,0.0,-999.0,80,0.00,,,0.00,,2013-04-12 14:00:00,
2013-04-12 09:33:00,49.0,43.0,-100.00,East,96,0.0,-999.0,80,0.00,,,0.00,,2013-04-12 14:33:00,
2013-04-12 09:43:00,49.0,43.0,-100.00,East,96,0.0,-999.0,80,0.00,,,0.00,,2013-04-12 14:43:00,
2013-04-12 09:53:00,49.0,43.0,-100.00,East,96,0.0,-999.0,80,0.00,,,0.00,,2013-04-12 14:53:00,
2013-04-12 10:00:00,58.0,39.0,-100.00,South,189,2.0,-999.0,50,0.00,,,-99.99,,2013-04-12 15:00:00,
2013-04-12 10:33:00,58.0,39.0,-100.00,South,189,2.0,-999.0,50,0.00,,,-99.99,,2013-04-12 15:33:00,
2013-04-12 10:43:00,58.0,39.0,-100.00,South,189,2.0,-999.0,50,0.00,,,-99.99,,2013-04-12 15:43:00,
2013-04-12 10:53:00,58.0,39.0,-100.00,South,189,2.0,-999.0,50,0.00,,,-99.99,,2013-04-12 15:53:00,
2013-04-12 11:00:00,60.0,39.0,-100.00,NW,316,1.0,-999.0,46,0.00,,,-99.99,,2013-04-12 16:00:00,
2013-04-12 11:33:00,60.0,39.0,-100.00,NW,316,1.0,-999.0,46,0.00,,,-99.99,,2013-04-12 16:33:00,
2013-04-12 11:43:00,60.0,39.0,-100.00,NW,316,1.0,-999.0,46,0.00,,,-99.99,,2013-04-12 16:43:00,
2013-04-12 11:53:00,60.0,39.0,-100.00,NW,316,1.0,-999.0,46,0.00,,,-99.99,,2013-04-12 16:53:00,
2013-04-12 12:00:00,61.0,36.0,-100.00,East,86,1.0,-999.0,40,0.00,,,0.00,,2013-04-12 17:00:00,
2013-04-12 12:33:00,61.0,36.0,-100.00,East,86,1.0,-999.0,40,0.00,,,0.00,,2013-04-12 17:33:00,
2013-04-12 12:47:00,61.0,36.0,-100.00,East,86,1.0,-999.0,40,0.00,,,0.00,,2013-04-12 17:47:00,
2013-04-12 13:00:00,64.0,39.0,-100.00,East,90,1.0,-999.0,41,0.00,,,0.00,,2013-04-12 18:00:00,
2013-04-12 14:00:00,65.0,35.0,-100.00,NNE,12,1.0,-999.0,33,0.00,,,0.00,,2013-04-12 19:00:00,
2013-04-12 14:32:00,65.0,35.0,-100.00,NNE,12,1.0,-999.0,33,0.00,,,0.00,,2013-04-12 19:32:00,
2013-04-12 14:43:00,65.0,35.0,-100.00,NNE,12,1.0,-999.0,33,0.00,,,0.00,,2013-04-12 19:43:00,
2013-04-12 14:53:00,65.0,35.0,-100.00,NNE,12,1.0,-999.0,33,0.00,,,0.00,,2013-04-12 19:53:00,
2013-04-12 15:00:00,70.0,34.0,-100.00,NW,322,1.0,-999.0,26,0.00,,,0.00,,2013-04-12 20:00:00,
2013-04-12 15:32:00,70.0,34.0,-100.00,NW,322,1.0,-999.0,26,0.00,,,0.00,,2013-04-12 20:32:00,
2013-04-12 15:43:00,70.0,34.0,-100.00,NW,322,1.0,-999.0,26,0.00,,,0.00,,2013-04-12 20:43:00,
2013-04-12 15:52:00,70.0,34.0,-100.00,NW,322,1.0,-999.0,26,0.00,,,0.00,,2013-04-12 20:52:00,
2013-04-12 16:00:00,71.0,34.0,-100.00,NW,310,2.0,-999.0,26,0.00,,,0.00,,2013-04-12 21:00:00,
2013-04-12 16:33:00,71.0,34.0,-100.00,NW,310,2.0,-999.0,26,0.00,,,0.00,,2013-04-12 21:33:00,
2013-04-12 16:43:00,71.0,34.0,-100.00,NW,310,2.0,-999.0,26,0.00,,,0.00,,2013-04-12 21:43:00,
2013-04-12 16:53:00,71.0,34.0,-100.00,NW,310,2.0,-999.0,26,0.00,,,0.00,,2013-04-12 21:53:00,
2013-04-12 17:00:00,71.0,34.0,-100.00,NW,322,1.0,-999.0,26,0.00,,,0.00,,2013-04-12 22:00:00,
2013-04-12 17:32:00,71.0,34.0,-100.00,NW,322,1.0,-999.0,26,0.00,,,0.00,,2013-04-12 22:32:00,
2013-04-12 17:43:00,71.0,34.0,-100.00,NW,322,1.0,-999.0,26,0.00,,,0.00,,2013-04-12 22:43:00,
2013-04-12 17:52:00,71.0,34.0,-100.00,NW,322,1.0,-999.0,26,0.00,,,0.00,,2013-04-12 22:52:00,
2013-04-12 18:00:00,70.0,36.0,-100.00,North,9,1.0,-999.0,29,0.00,,,0.00,,2013-04-12 23:00:00,
2013-04-12 18:32:00,70.0,36.0,-100.00,North,9,1.0,-999.0,29,0.00,,,0.00,,2013-04-12 23:32:00,
2013-04-12 18:42:00,70.0,36.0,-100.00,North,9,1.0,-999.0,29,0.00,,,0.00,,2013-04-12 23:42:00,
2013-04-12 18:52:00,70.0,36.0,-100.00,North,9,1.0,-999.0,29,0.00,,,0.00,,2013-04-12 23:52:00,
2013-04-12 19:00:00,70.0,35.0,-100.00,NW,316,3.0,-999.0,28,0.00,,,0.00,,2013-04-13 00:00:00,
2013-04-12 19:32:00,70.0,35.0,-100.00,NW,316,3.0,-999.0,28,0.00,,,0.00,,2013-04-13 00:32:00,
2013-04-12 19:42:00,70.0,35.0,-100.00,NW,316,3.0,-999.0,28,0.00,,,0.00,,2013-04-13 00:42:00,
2013-04-12 19:52:00,70.0,35.0,-100.00,NW,316,3.0,-999.0,28,0.00,,,0.00,,2013-04-13 00:52:00,
2013-04-12 20:00:00,65.0,46.0,-100.00,North,353,0.0,-999.0,50,0.00,,,0.00,,2013-04-13 01:00:00,
2013-04-12 20:32:00,65.0,46.0,-100.00,North,353,0.0,-999.0,50,0.00,,,0.00,,2013-04-13 01:32:00,
2013-04-12 20:43:00,65.0,46.0,-100.00,North,353,0.0,-999.0,50,0.00,,,0.00,,2013-04-13 01:43:00,
2013-04-12 20:52:00,65.0,46.0,-100.00,North,353,0.0,-999.0,50,0.00,,,0.00,,2013-04-13 01:52:00,
2013-04-12 22:00:00,57.0,42.0,-100.00,WNW,302,0.0,-999.0,57,0.00,,,0.00,,2013-04-13 03:00:00,
2013-04-12 22:33:00,57.0,42.0,-100.00,WNW,302,0.0,-999.0,57,0.00,,,0.00,,2013-04-13 03:33:00,
2013-04-12 22:43:00,57.0,42.0,-100.00,WNW,302,0.0,-999.0,57,0.00,,,0.00,,2013-04-13 03:43:00,
2013-04-12 22:53:00,57.0,42.0,-100.00,WNW,302,0.0,-999.0,57,0.00,,,0.00,,2013-04-13 03:53:00,